sensor_id;sensor_type;location;lat;lon;timestamp;temperature;humidity
6738;DHT22;3406;49.902;8.596;2024-01-15T00:00:53;-1.60;85.00
6738;DHT22;3406;49.902;8.596;2024-01-15T00:03:20;-1.60;85.00
6738;DHT22;3406;49.902;8.596;2024-01-15T00:05:46;-1.60;85.20
6738;DHT22;3406;49.902;8.596;2024-01-15T00:08:14;-1.60;85.30
6738;DHT22;3406;49.902;8.596;2024-01-15T00:10:41;-1.70;85.40
6738;DHT22;3406;49.902;8.596;2024-01-15T00:13:08;-1.70;85.50
6738;DHT22;3406;49.902;8.596;2024-01-15T00:15:35;-1.70;85.60
6738;DHT22;3406;49.902;8.596;2024-01-15T00:18:01;-1.70;85.80
6738;DHT22;3406;49.902;8.596;2024-01-15T00:20:28;-1.60;86.10
6738;DHT22;3406;49.902;8.596;2024-01-15T00:22:54;-1.70;86.20
6738;DHT22;3406;49.902;8.596;2024-01-15T00:25:22;-1.70;86.30
6738;DHT22;3406;49.902;8.596;2024-01-15T00:27:49;-1.80;86.40
6738;DHT22;3406;49.902;8.596;2024-01-15T00:30:16;-1.80;86.50
6738;DHT22;3406;49.902;8.596;2024-01-15T00:32:42;-1.80;86.80
6738;DHT22;3406;49.902;8.596;2024-01-15T00:35:09;-1.80;87.10
6738;DHT22;3406;49.902;8.596;2024-01-15T00:37:36;-1.80;87.50
6738;DHT22;3406;49.902;8.596;2024-01-15T00:40:03;-1.80;87.60
6738;DHT22;3406;49.902;8.596;2024-01-15T00:42:31;-1.80;87.90
6738;DHT22;3406;49.902;8.596;2024-01-15T00:44:58;-1.80;88.10
6738;DHT22;3406;49.902;8.596;2024-01-15T00:47:25;-1.80;88.30
6738;DHT22;3406;49.902;8.596;2024-01-15T00:49:51;-1.70;88.30
6738;DHT22;3406;49.902;8.596;2024-01-15T00:52:18;-1.70;88.50
6738;DHT22;3406;49.902;8.596;2024-01-15T00:54:44;-1.70;88.60
6738;DHT22;3406;49.902;8.596;2024-01-15T00:57:11;-1.70;88.70
6738;DHT22;3406;49.902;8.596;2024-01-15T00:59:39;-1.70;88.70
6738;DHT22;3406;49.902;8.596;2024-01-15T01:02:06;-1.70;88.90
6738;DHT22;3406;49.902;8.596;2024-01-15T01:04:32;-1.70;89.00
6738;DHT22;3406;49.902;8.596;2024-01-15T01:06:59;-1.70;89.20
6738;DHT22;3406;49.902;8.596;2024-01-15T01:09:25;-1.70;89.30
6738;DHT22;3406;49.902;8.596;2024-01-15T01:11:54;-1.70;89.50
6738;DHT22;3406;49.902;8.596;2024-01-15T01:14:21;-1.70;89.50
6738;DHT22;3406;49.902;8.596;2024-01-15T01:16:49;-1.70;89.50
6738;DHT22;3406;49.902;8.596;2024-01-15T01:19:15;-1.70;89.70
6738;DHT22;3406;49.902;8.596;2024-01-15T01:21:42;-1.70;90.00
6738;DHT22;3406;49.902;8.596;2024-01-15T01:24:09;-1.70;90.00
6738;DHT22;3406;49.902;8.596;2024-01-15T01:26:35;-1.70;90.00
6738;DHT22;3406;49.902;8.596;2024-01-15T01:29:02;-1.60;90.00
6738;DHT22;3406;49.902;8.596;2024-01-15T01:31:29;-1.60;90.10
6738;DHT22;3406;49.902;8.596;2024-01-15T01:33:57;-1.60;90.10
6738;DHT22;3406;49.902;8.596;2024-01-15T01:36:23;-1.60;90.10
6738;DHT22;3406;49.902;8.596;2024-01-15T01:38:50;-1.60;90.10
6738;DHT22;3406;49.902;8.596;2024-01-15T01:41:17;-1.50;90.10
6738;DHT22;3406;49.902;8.596;2024-01-15T01:43:43;-1.50;90.00
6738;DHT22;3406;49.902;8.596;2024-01-15T01:46:11;-1.50;90.00
6738;DHT22;3406;49.902;8.596;2024-01-15T01:48:38;-1.40;90.10
6738;DHT22;3406;49.902;8.596;2024-01-15T01:51:06;-1.40;90.00
6738;DHT22;3406;49.902;8.596;2024-01-15T01:53:34;-1.40;89.90
6738;DHT22;3406;49.902;8.596;2024-01-15T01:56:02;-1.40;90.00
6738;DHT22;3406;49.902;8.596;2024-01-15T01:58:30;-1.40;89.90
6738;DHT22;3406;49.902;8.596;2024-01-15T02:00:58;-1.40;90.00
6738;DHT22;3406;49.902;8.596;2024-01-15T02:03:25;-1.40;89.90
6738;DHT22;3406;49.902;8.596;2024-01-15T02:05:53;-1.40;89.80
6738;DHT22;3406;49.902;8.596;2024-01-15T02:08:21;-1.40;89.70
6738;DHT22;3406;49.902;8.596;2024-01-15T02:10:48;-1.40;89.80
6738;DHT22;3406;49.902;8.596;2024-01-15T02:13:15;-1.40;89.70
6738;DHT22;3406;49.902;8.596;2024-01-15T02:15:42;-1.40;89.70
6738;DHT22;3406;49.902;8.596;2024-01-15T02:18:08;-1.30;89.70
6738;DHT22;3406;49.902;8.596;2024-01-15T02:20:35;-1.30;89.70
6738;DHT22;3406;49.902;8.596;2024-01-15T02:23:10;-1.30;89.60
6738;DHT22;3406;49.902;8.596;2024-01-15T02:25:38;-1.30;89.70
6738;DHT22;3406;49.902;8.596;2024-01-15T02:28:06;-1.30;89.50
6738;DHT22;3406;49.902;8.596;2024-01-15T02:30:34;-1.20;89.60
6738;DHT22;3406;49.902;8.596;2024-01-15T02:36:25;-1.20;89.60
6738;DHT22;3406;49.902;8.596;2024-01-15T02:38:53;-1.20;89.50
6738;DHT22;3406;49.902;8.596;2024-01-15T02:41:20;-1.20;89.40
6738;DHT22;3406;49.902;8.596;2024-01-15T02:43:46;-1.30;89.40
6738;DHT22;3406;49.902;8.596;2024-01-15T02:46:13;-1.20;89.50
6738;DHT22;3406;49.902;8.596;2024-01-15T02:48:41;-1.20;89.30
6738;DHT22;3406;49.902;8.596;2024-01-15T02:51:08;-1.20;89.20
6738;DHT22;3406;49.902;8.596;2024-01-15T02:53:35;-1.20;89.20
6738;DHT22;3406;49.902;8.596;2024-01-15T02:56:04;-1.20;89.30
6738;DHT22;3406;49.902;8.596;2024-01-15T02:58:31;-1.20;89.30
6738;DHT22;3406;49.902;8.596;2024-01-15T03:00:57;-1.20;89.10
6738;DHT22;3406;49.902;8.596;2024-01-15T03:03:24;-1.20;89.10
6738;DHT22;3406;49.902;8.596;2024-01-15T03:05:50;-1.20;89.10
6738;DHT22;3406;49.902;8.596;2024-01-15T03:08:17;-1.20;89.10
6738;DHT22;3406;49.902;8.596;2024-01-15T03:10:44;-1.20;89.10
6738;DHT22;3406;49.902;8.596;2024-01-15T03:13:12;-1.20;89.10
6738;DHT22;3406;49.902;8.596;2024-01-15T03:15:39;-1.10;89.20
6738;DHT22;3406;49.902;8.596;2024-01-15T03:18:06;-1.10;89.20
6738;DHT22;3406;49.902;8.596;2024-01-15T03:20:32;-1.10;89.20
6738;DHT22;3406;49.902;8.596;2024-01-15T03:22:59;-1.00;89.40
6738;DHT22;3406;49.902;8.596;2024-01-15T03:25:26;-1.00;89.30
6738;DHT22;3406;49.902;8.596;2024-01-15T03:27:52;-1.00;89.60
6738;DHT22;3406;49.902;8.596;2024-01-15T03:30:20;-1.00;89.60
6738;DHT22;3406;49.902;8.596;2024-01-15T03:32:47;-0.90;89.60
6738;DHT22;3406;49.902;8.596;2024-01-15T03:35:15;-0.90;89.50
6738;DHT22;3406;49.902;8.596;2024-01-15T03:37:42;-0.90;89.40
6738;DHT22;3406;49.902;8.596;2024-01-15T03:40:09;-0.90;89.30
6738;DHT22;3406;49.902;8.596;2024-01-15T03:42:36;-0.90;89.30
6738;DHT22;3406;49.902;8.596;2024-01-15T03:45:03;-1.00;89.00
6738;DHT22;3406;49.902;8.596;2024-01-15T03:47:32;-1.00;89.10
6738;DHT22;3406;49.902;8.596;2024-01-15T03:49:59;-1.00;89.10
6738;DHT22;3406;49.902;8.596;2024-01-15T03:52:26;-0.90;89.20
6738;DHT22;3406;49.902;8.596;2024-01-15T03:54:52;-0.90;89.10
6738;DHT22;3406;49.902;8.596;2024-01-15T03:57:19;-0.90;89.10
6738;DHT22;3406;49.902;8.596;2024-01-15T03:59:45;-0.90;89.20
6738;DHT22;3406;49.902;8.596;2024-01-15T04:02:12;-0.90;89.10
6738;DHT22;3406;49.902;8.596;2024-01-15T04:04:42;-0.90;89.10
6738;DHT22;3406;49.902;8.596;2024-01-15T04:07:09;-0.90;89.20
6738;DHT22;3406;49.902;8.596;2024-01-15T04:09:35;-0.90;89.20
6738;DHT22;3406;49.902;8.596;2024-01-15T04:12:02;-0.90;89.10
6738;DHT22;3406;49.902;8.596;2024-01-15T04:14:29;-0.90;89.10
6738;DHT22;3406;49.902;8.596;2024-01-15T04:16:56;-0.90;89.10
6738;DHT22;3406;49.902;8.596;2024-01-15T04:19:22;-0.90;89.10
6738;DHT22;3406;49.902;8.596;2024-01-15T04:21:50;-0.90;89.00
6738;DHT22;3406;49.902;8.596;2024-01-15T04:24:17;-0.90;89.00
6738;DHT22;3406;49.902;8.596;2024-01-15T04:26:43;-0.80;89.80
6738;DHT22;3406;49.902;8.596;2024-01-15T04:29:10;-0.80;89.10
6738;DHT22;3406;49.902;8.596;2024-01-15T04:31:37;-0.80;89.00
6738;DHT22;3406;49.902;8.596;2024-01-15T04:34:04;-0.80;89.10
6738;DHT22;3406;49.902;8.596;2024-01-15T04:36:31;-0.80;89.20
6738;DHT22;3406;49.902;8.596;2024-01-15T04:38:58;-0.80;89.10
6738;DHT22;3406;49.902;8.596;2024-01-15T04:41:25;-0.80;89.00
6738;DHT22;3406;49.902;8.596;2024-01-15T04:43:52;-0.80;89.00
6738;DHT22;3406;49.902;8.596;2024-01-15T04:46:18;-0.80;89.00
6738;DHT22;3406;49.902;8.596;2024-01-15T04:48:45;-0.80;88.90
6738;DHT22;3406;49.902;8.596;2024-01-15T04:51:12;-0.80;89.00
6738;DHT22;3406;49.902;8.596;2024-01-15T04:53:38;-0.80;89.00
6738;DHT22;3406;49.902;8.596;2024-01-15T04:56:06;-0.90;89.10
6738;DHT22;3406;49.902;8.596;2024-01-15T04:58:33;-0.80;89.10
6738;DHT22;3406;49.902;8.596;2024-01-15T05:01:00;-0.80;89.10
6738;DHT22;3406;49.902;8.596;2024-01-15T05:03:26;-0.80;89.00
6738;DHT22;3406;49.902;8.596;2024-01-15T05:05:53;-0.80;89.10
6738;DHT22;3406;49.902;8.596;2024-01-15T05:08:20;-0.80;89.00
6738;DHT22;3406;49.902;8.596;2024-01-15T05:10:47;-0.80;89.10
6738;DHT22;3406;49.902;8.596;2024-01-15T05:13:15;-0.70;89.20
6738;DHT22;3406;49.902;8.596;2024-01-15T05:15:41;-0.70;89.10
6738;DHT22;3406;49.902;8.596;2024-01-15T05:18:08;-0.60;89.20
6738;DHT22;3406;49.902;8.596;2024-01-15T05:20:35;-0.60;89.10
6738;DHT22;3406;49.902;8.596;2024-01-15T05:23:01;-0.60;89.10
6738;DHT22;3406;49.902;8.596;2024-01-15T05:25:28;-0.60;89.10
6738;DHT22;3406;49.902;8.596;2024-01-15T05:27:55;-0.60;89.00
6738;DHT22;3406;49.902;8.596;2024-01-15T05:30:23;-0.60;89.00
6738;DHT22;3406;49.902;8.596;2024-01-15T05:32:49;-0.60;88.90
6738;DHT22;3406;49.902;8.596;2024-01-15T05:35:16;-0.60;88.90
6738;DHT22;3406;49.902;8.596;2024-01-15T05:37:44;-0.60;88.90
6738;DHT22;3406;49.902;8.596;2024-01-15T05:40:12;-0.60;89.00
6738;DHT22;3406;49.902;8.596;2024-01-15T05:42:39;-0.50;88.90
6738;DHT22;3406;49.902;8.596;2024-01-15T05:45:06;-0.50;89.70
6738;DHT22;3406;49.902;8.596;2024-01-15T05:47:34;-0.60;88.70
6738;DHT22;3406;49.902;8.596;2024-01-15T05:50:01;-0.60;88.70
6738;DHT22;3406;49.902;8.596;2024-01-15T05:52:28;-0.60;88.80
6738;DHT22;3406;49.902;8.596;2024-01-15T05:54:55;-0.60;88.90
6738;DHT22;3406;49.902;8.596;2024-01-15T05:57:21;-0.60;88.80
6738;DHT22;3406;49.902;8.596;2024-01-15T05:59:48;-0.60;89.00
6738;DHT22;3406;49.902;8.596;2024-01-15T06:02:15;-0.60;89.20
6738;DHT22;3406;49.902;8.596;2024-01-15T06:04:43;-0.70;89.30
6738;DHT22;3406;49.902;8.596;2024-01-15T06:07:09;-0.70;89.40
6738;DHT22;3406;49.902;8.596;2024-01-15T06:09:36;-0.70;90.20
6738;DHT22;3406;49.902;8.596;2024-01-15T06:12:04;-0.70;90.00
6738;DHT22;3406;49.902;8.596;2024-01-15T06:14:31;-0.70;90.20
6738;DHT22;3406;49.902;8.596;2024-01-15T06:16:57;-0.60;90.30
6738;DHT22;3406;49.902;8.596;2024-01-15T06:19:24;-0.60;90.40
6738;DHT22;3406;49.902;8.596;2024-01-15T06:21:52;-0.50;90.50
6738;DHT22;3406;49.902;8.596;2024-01-15T06:24:18;-0.60;90.40
6738;DHT22;3406;49.902;8.596;2024-01-15T06:26:46;-0.60;90.40
6738;DHT22;3406;49.902;8.596;2024-01-15T06:29:13;-0.60;90.40
6738;DHT22;3406;49.902;8.596;2024-01-15T06:31:39;-0.60;90.40
6738;DHT22;3406;49.902;8.596;2024-01-15T06:34:06;-0.60;90.40
6738;DHT22;3406;49.902;8.596;2024-01-15T06:36:33;-0.60;90.40
6738;DHT22;3406;49.902;8.596;2024-01-15T06:39:01;-0.50;90.40
6738;DHT22;3406;49.902;8.596;2024-01-15T06:41:27;-0.50;90.50
6738;DHT22;3406;49.902;8.596;2024-01-15T06:43:54;-0.50;90.50
6738;DHT22;3406;49.902;8.596;2024-01-15T06:46:21;-0.40;90.60
6738;DHT22;3406;49.902;8.596;2024-01-15T06:48:48;-0.40;90.60
6738;DHT22;3406;49.902;8.596;2024-01-15T06:51:16;-0.40;90.50
6738;DHT22;3406;49.902;8.596;2024-01-15T06:53:42;-0.40;90.40
6738;DHT22;3406;49.902;8.596;2024-01-15T06:56:10;-0.40;90.40
6738;DHT22;3406;49.902;8.596;2024-01-15T06:58:37;-0.30;90.50
6738;DHT22;3406;49.902;8.596;2024-01-15T07:01:04;-0.30;90.50
6738;DHT22;3406;49.902;8.596;2024-01-15T07:03:31;-0.30;90.80
6738;DHT22;3406;49.902;8.596;2024-01-15T07:05:57;-0.30;90.50
6738;DHT22;3406;49.902;8.596;2024-01-15T07:08:24;-0.30;90.50
6738;DHT22;3406;49.902;8.596;2024-01-15T07:10:51;-0.30;90.40
6738;DHT22;3406;49.902;8.596;2024-01-15T07:13:19;-0.30;90.40
6738;DHT22;3406;49.902;8.596;2024-01-15T07:15:45;-0.30;90.40
6738;DHT22;3406;49.902;8.596;2024-01-15T07:18:12;-0.30;90.40
6738;DHT22;3406;49.902;8.596;2024-01-15T07:20:39;-0.30;90.40
6738;DHT22;3406;49.902;8.596;2024-01-15T07:23:05;-0.40;90.40
6738;DHT22;3406;49.902;8.596;2024-01-15T07:25:32;-0.30;90.50
6738;DHT22;3406;49.902;8.596;2024-01-15T07:27:59;-0.30;90.60
6738;DHT22;3406;49.902;8.596;2024-01-15T07:30:27;-0.30;90.60
6738;DHT22;3406;49.902;8.596;2024-01-15T07:32:53;-0.30;90.60
6738;DHT22;3406;49.902;8.596;2024-01-15T07:35:20;-0.20;90.70
6738;DHT22;3406;49.902;8.596;2024-01-15T07:37:47;-0.20;90.60
6738;DHT22;3406;49.902;8.596;2024-01-15T07:40:14;-0.20;90.60
6738;DHT22;3406;49.902;8.596;2024-01-15T07:42:41;-0.30;90.60
6738;DHT22;3406;49.902;8.596;2024-01-15T07:45:08;-0.20;90.70
6738;DHT22;3406;49.902;8.596;2024-01-15T07:47:37;-0.10;91.20
6738;DHT22;3406;49.902;8.596;2024-01-15T07:50:04;0.10;91.10
6738;DHT22;3406;49.902;8.596;2024-01-15T07:52:31;0.10;90.80
6738;DHT22;3406;49.902;8.596;2024-01-15T07:54:58;0.10;90.70
6738;DHT22;3406;49.902;8.596;2024-01-15T07:57:26;0.00;90.60
6738;DHT22;3406;49.902;8.596;2024-01-15T07:59:53;0.10;90.60
6738;DHT22;3406;49.902;8.596;2024-01-15T08:02:19;0.00;90.50
6738;DHT22;3406;49.902;8.596;2024-01-15T08:04:48;0.00;90.50
6738;DHT22;3406;49.902;8.596;2024-01-15T08:07:15;0.00;90.50
6738;DHT22;3406;49.902;8.596;2024-01-15T08:09:43;0.00;90.50
6738;DHT22;3406;49.902;8.596;2024-01-15T08:12:09;0.00;90.60
6738;DHT22;3406;49.902;8.596;2024-01-15T08:14:37;0.00;90.60
6738;DHT22;3406;49.902;8.596;2024-01-15T08:17:04;0.00;90.60
6738;DHT22;3406;49.902;8.596;2024-01-15T08:19:31;0.10;90.70
6738;DHT22;3406;49.902;8.596;2024-01-15T08:21:59;0.10;90.70
6738;DHT22;3406;49.902;8.596;2024-01-15T08:24:25;0.20;90.70
6738;DHT22;3406;49.902;8.596;2024-01-15T08:26:52;0.20;90.70
6738;DHT22;3406;49.902;8.596;2024-01-15T08:29:18;0.30;90.70
6738;DHT22;3406;49.902;8.596;2024-01-15T08:31:46;0.30;90.70
6738;DHT22;3406;49.902;8.596;2024-01-15T08:34:13;0.40;90.60
6738;DHT22;3406;49.902;8.596;2024-01-15T08:36:39;0.40;90.60
6738;DHT22;3406;49.902;8.596;2024-01-15T08:39:08;0.40;90.60
6738;DHT22;3406;49.902;8.596;2024-01-15T08:41:35;0.40;90.60
6738;DHT22;3406;49.902;8.596;2024-01-15T08:44:02;0.50;90.60
6738;DHT22;3406;49.902;8.596;2024-01-15T08:46:29;0.50;90.50
6738;DHT22;3406;49.902;8.596;2024-01-15T08:48:55;0.50;90.50
6738;DHT22;3406;49.902;8.596;2024-01-15T08:51:22;0.50;90.50
6738;DHT22;3406;49.902;8.596;2024-01-15T08:53:49;0.60;90.50
6738;DHT22;3406;49.902;8.596;2024-01-15T08:56:17;0.60;90.50
6738;DHT22;3406;49.902;8.596;2024-01-15T08:58:43;0.70;90.50
6738;DHT22;3406;49.902;8.596;2024-01-15T09:01:11;0.70;90.50
6738;DHT22;3406;49.902;8.596;2024-01-15T09:03:38;0.80;90.50
6738;DHT22;3406;49.902;8.596;2024-01-15T09:06:07;0.80;90.40
6738;DHT22;3406;49.902;8.596;2024-01-15T09:08:35;0.80;90.30
6738;DHT22;3406;49.902;8.596;2024-01-15T09:11:01;0.80;90.20
6738;DHT22;3406;49.902;8.596;2024-01-15T09:13:30;0.80;90.20
6738;DHT22;3406;49.902;8.596;2024-01-15T09:15:58;0.80;90.30
6738;DHT22;3406;49.902;8.596;2024-01-15T09:18:24;0.80;90.20
6738;DHT22;3406;49.902;8.596;2024-01-15T09:20:51;0.80;90.20
6738;DHT22;3406;49.902;8.596;2024-01-15T09:23:18;0.80;90.20
6738;DHT22;3406;49.902;8.596;2024-01-15T09:25:44;0.90;90.20
6738;DHT22;3406;49.902;8.596;2024-01-15T09:28:11;0.90;90.30
6738;DHT22;3406;49.902;8.596;2024-01-15T09:30:39;1.00;90.30
6738;DHT22;3406;49.902;8.596;2024-01-15T09:33:06;1.00;90.20
6738;DHT22;3406;49.902;8.596;2024-01-15T09:35:32;1.00;90.10
6738;DHT22;3406;49.902;8.596;2024-01-15T09:37:59;1.10;90.10
6738;DHT22;3406;49.902;8.596;2024-01-15T09:40:31;1.10;90.10
6738;DHT22;3406;49.902;8.596;2024-01-15T09:42:59;1.10;90.00
6738;DHT22;3406;49.902;8.596;2024-01-15T09:45:26;1.20;90.10
6738;DHT22;3406;49.902;8.596;2024-01-15T09:47:54;1.20;90.00
6738;DHT22;3406;49.902;8.596;2024-01-15T09:50:21;1.30;89.90
6738;DHT22;3406;49.902;8.596;2024-01-15T09:52:48;1.30;89.80
6738;DHT22;3406;49.902;8.596;2024-01-15T09:55:15;1.30;89.80
6738;DHT22;3406;49.902;8.596;2024-01-15T09:57:43;1.30;89.50
6738;DHT22;3406;49.902;8.596;2024-01-15T10:00:11;1.20;89.30
6738;DHT22;3406;49.902;8.596;2024-01-15T10:02:38;1.20;89.30
6738;DHT22;3406;49.902;8.596;2024-01-15T10:05:07;1.20;89.40
6738;DHT22;3406;49.902;8.596;2024-01-15T10:07:36;1.20;89.40
6738;DHT22;3406;49.902;8.596;2024-01-15T10:10:04;1.20;89.30
6738;DHT22;3406;49.902;8.596;2024-01-15T10:12:31;1.20;89.20
6738;DHT22;3406;49.902;8.596;2024-01-15T10:14:57;1.30;89.60
6738;DHT22;3406;49.902;8.596;2024-01-15T10:17:24;1.40;89.50
6738;DHT22;3406;49.902;8.596;2024-01-15T10:19:51;1.40;89.10
6738;DHT22;3406;49.902;8.596;2024-01-15T10:22:19;1.40;88.90
6738;DHT22;3406;49.902;8.596;2024-01-15T10:24:46;1.40;88.80
6738;DHT22;3406;49.902;8.596;2024-01-15T10:27:13;1.40;88.70
6738;DHT22;3406;49.902;8.596;2024-01-15T10:29:41;1.40;88.60
6738;DHT22;3406;49.902;8.596;2024-01-15T10:32:08;1.40;88.60
6738;DHT22;3406;49.902;8.596;2024-01-15T10:34:38;1.40;88.60
6738;DHT22;3406;49.902;8.596;2024-01-15T10:37:07;1.40;88.40
6738;DHT22;3406;49.902;8.596;2024-01-15T10:39:35;1.40;88.30
6738;DHT22;3406;49.902;8.596;2024-01-15T10:42:03;1.30;88.20
6738;DHT22;3406;49.902;8.596;2024-01-15T10:44:29;1.30;88.20
6738;DHT22;3406;49.902;8.596;2024-01-15T10:46:57;1.30;88.20
6738;DHT22;3406;49.902;8.596;2024-01-15T10:49:24;1.30;88.30
6738;DHT22;3406;49.902;8.596;2024-01-15T10:51:52;1.40;88.40
6738;DHT22;3406;49.902;8.596;2024-01-15T10:54:19;1.30;88.30
6738;DHT22;3406;49.902;8.596;2024-01-15T10:56:49;1.30;88.40
6738;DHT22;3406;49.902;8.596;2024-01-15T10:59:16;1.30;88.30
6738;DHT22;3406;49.902;8.596;2024-01-15T11:01:45;1.40;88.50
6738;DHT22;3406;49.902;8.596;2024-01-15T11:04:13;1.40;88.50
6738;DHT22;3406;49.902;8.596;2024-01-15T11:06:43;1.40;88.30
6738;DHT22;3406;49.902;8.596;2024-01-15T11:09:11;1.60;89.30
6738;DHT22;3406;49.902;8.596;2024-01-15T11:11:41;2.00;89.60
6738;DHT22;3406;49.902;8.596;2024-01-15T11:14:09;2.40;89.40
6738;DHT22;3406;49.902;8.596;2024-01-15T11:16:55;2.60;88.80
6738;DHT22;3406;49.902;8.596;2024-01-15T11:19:24;2.60;87.30
6738;DHT22;3406;49.902;8.596;2024-01-15T11:21:51;2.50;86.60
6738;DHT22;3406;49.902;8.596;2024-01-15T11:24:38;2.40;86.20
6738;DHT22;3406;49.902;8.596;2024-01-15T11:27:05;2.40;86.30
6738;DHT22;3406;49.902;8.596;2024-01-15T11:29:34;2.40;86.30
6738;DHT22;3406;49.902;8.596;2024-01-15T11:32:05;2.40;86.10
6738;DHT22;3406;49.902;8.596;2024-01-15T11:34:52;2.40;85.80
6738;DHT22;3406;49.902;8.596;2024-01-15T11:37:19;2.40;85.40
6738;DHT22;3406;49.902;8.596;2024-01-15T11:39:47;2.40;85.30
6738;DHT22;3406;49.902;8.596;2024-01-15T11:42:14;2.40;85.10
6738;DHT22;3406;49.902;8.596;2024-01-15T11:44:43;2.40;85.00
6738;DHT22;3406;49.902;8.596;2024-01-15T11:47:10;2.50;84.90
6738;DHT22;3406;49.902;8.596;2024-01-15T11:50:06;2.50;84.70
6738;DHT22;3406;49.902;8.596;2024-01-15T11:52:34;2.50;84.10
6738;DHT22;3406;49.902;8.596;2024-01-15T11:55:07;2.60;83.90
6738;DHT22;3406;49.902;8.596;2024-01-15T11:57:41;2.60;83.70
6738;DHT22;3406;49.902;8.596;2024-01-15T12:00:12;2.60;83.20
6738;DHT22;3406;49.902;8.596;2024-01-15T12:02:39;2.60;83.00
6738;DHT22;3406;49.902;8.596;2024-01-15T12:05:07;2.70;83.20
6738;DHT22;3406;49.902;8.596;2024-01-15T12:07:34;2.70;82.70
6738;DHT22;3406;49.902;8.596;2024-01-15T12:10:01;2.60;82.30
6738;DHT22;3406;49.902;8.596;2024-01-15T12:12:37;2.70;82.30
6738;DHT22;3406;49.902;8.596;2024-01-15T12:15:06;2.60;82.20
6738;DHT22;3406;49.902;8.596;2024-01-15T12:17:35;2.60;82.00
6738;DHT22;3406;49.902;8.596;2024-01-15T12:20:02;2.50;81.80
6738;DHT22;3406;49.902;8.596;2024-01-15T12:22:29;2.50;82.00
6738;DHT22;3406;49.902;8.596;2024-01-15T12:24:55;2.50;82.00
6738;DHT22;3406;49.902;8.596;2024-01-15T12:27:23;2.50;82.00
6738;DHT22;3406;49.902;8.596;2024-01-15T12:29:50;2.50;81.90
6738;DHT22;3406;49.902;8.596;2024-01-15T12:32:16;2.50;81.90
6738;DHT22;3406;49.902;8.596;2024-01-15T12:34:48;2.50;82.00
6738;DHT22;3406;49.902;8.596;2024-01-15T12:37:17;2.50;82.00
6738;DHT22;3406;49.902;8.596;2024-01-15T12:39:44;2.50;81.90
6738;DHT22;3406;49.902;8.596;2024-01-15T12:42:10;2.50;81.90
6738;DHT22;3406;49.902;8.596;2024-01-15T12:44:37;2.60;81.90
6738;DHT22;3406;49.902;8.596;2024-01-15T12:47:04;2.60;81.80
6738;DHT22;3406;49.902;8.596;2024-01-15T12:49:31;2.60;81.70
6738;DHT22;3406;49.902;8.596;2024-01-15T12:51:59;2.60;82.40
6738;DHT22;3406;49.902;8.596;2024-01-15T12:54:26;2.60;81.60
6738;DHT22;3406;49.902;8.596;2024-01-15T12:56:53;2.60;81.60
6738;DHT22;3406;49.902;8.596;2024-01-15T12:59:20;2.70;81.60
6738;DHT22;3406;49.902;8.596;2024-01-15T13:01:46;2.70;81.40
6738;DHT22;3406;49.902;8.596;2024-01-15T13:04:21;2.70;81.40
6738;DHT22;3406;49.902;8.596;2024-01-15T13:06:49;2.70;81.30
6738;DHT22;3406;49.902;8.596;2024-01-15T13:09:17;2.70;82.00
6738;DHT22;3406;49.902;8.596;2024-01-15T13:11:44;2.70;81.20
6738;DHT22;3406;49.902;8.596;2024-01-15T13:14:11;2.70;81.20
6738;DHT22;3406;49.902;8.596;2024-01-15T13:16:39;2.80;81.20
6738;DHT22;3406;49.902;8.596;2024-01-15T13:19:06;2.80;81.20
6738;DHT22;3406;49.902;8.596;2024-01-15T13:21:33;2.80;81.10
6738;DHT22;3406;49.902;8.596;2024-01-15T13:24:00;2.90;81.00
6738;DHT22;3406;49.902;8.596;2024-01-15T13:26:28;2.90;81.00
6738;DHT22;3406;49.902;8.596;2024-01-15T13:28:55;2.90;80.80
6738;DHT22;3406;49.902;8.596;2024-01-15T13:31:22;2.90;80.50
6738;DHT22;3406;49.902;8.596;2024-01-15T13:33:48;2.90;80.30
6738;DHT22;3406;49.902;8.596;2024-01-15T13:36:15;2.90;80.20
6738;DHT22;3406;49.902;8.596;2024-01-15T13:38:41;3.00;80.10
6738;DHT22;3406;49.902;8.596;2024-01-15T13:41:08;3.00;79.70
6738;DHT22;3406;49.902;8.596;2024-01-15T13:43:36;3.00;79.50
6738;DHT22;3406;49.902;8.596;2024-01-15T13:46:03;3.00;79.00
6738;DHT22;3406;49.902;8.596;2024-01-15T13:48:30;2.90;78.80
6738;DHT22;3406;49.902;8.596;2024-01-15T13:50:58;2.90;78.70
6738;DHT22;3406;49.902;8.596;2024-01-15T13:53:24;2.90;78.50
6738;DHT22;3406;49.902;8.596;2024-01-15T13:55:51;2.90;78.50
6738;DHT22;3406;49.902;8.596;2024-01-15T13:58:18;2.90;78.40
6738;DHT22;3406;49.902;8.596;2024-01-15T14:00:48;2.90;78.50
6738;DHT22;3406;49.902;8.596;2024-01-15T14:03:14;2.80;78.30
6738;DHT22;3406;49.902;8.596;2024-01-15T14:05:41;2.80;78.20
6738;DHT22;3406;49.902;8.596;2024-01-15T14:08:08;2.90;78.20
6738;DHT22;3406;49.902;8.596;2024-01-15T14:10:34;2.90;78.00
6738;DHT22;3406;49.902;8.596;2024-01-15T14:13:01;2.90;77.90
6738;DHT22;3406;49.902;8.596;2024-01-15T14:15:28;3.00;78.00
6738;DHT22;3406;49.902;8.596;2024-01-15T14:17:56;3.00;77.90
6738;DHT22;3406;49.902;8.596;2024-01-15T14:20:23;3.10;77.70
6738;DHT22;3406;49.902;8.596;2024-01-15T14:22:49;3.20;77.70
6738;DHT22;3406;49.902;8.596;2024-01-15T14:25:16;3.20;77.40
6738;DHT22;3406;49.902;8.596;2024-01-15T14:27:43;3.20;77.30
6738;DHT22;3406;49.902;8.596;2024-01-15T14:30:11;3.20;77.00
6738;DHT22;3406;49.902;8.596;2024-01-15T14:32:38;3.20;76.70
6738;DHT22;3406;49.902;8.596;2024-01-15T14:35:08;3.20;76.60
6738;DHT22;3406;49.902;8.596;2024-01-15T14:37:36;3.20;76.60
6738;DHT22;3406;49.902;8.596;2024-01-15T14:40:03;3.20;76.50
6738;DHT22;3406;49.902;8.596;2024-01-15T14:42:30;3.30;76.50
6738;DHT22;3406;49.902;8.596;2024-01-15T14:44:57;3.30;76.30
6738;DHT22;3406;49.902;8.596;2024-01-15T14:47:23;3.30;75.90
6738;DHT22;3406;49.902;8.596;2024-01-15T14:49:50;3.30;75.70
6738;DHT22;3406;49.902;8.596;2024-01-15T14:52:18;3.30;75.50
6738;DHT22;3406;49.902;8.596;2024-01-15T14:54:45;3.30;75.30
6738;DHT22;3406;49.902;8.596;2024-01-15T14:57:13;3.30;75.20
6738;DHT22;3406;49.902;8.596;2024-01-15T14:59:39;3.30;75.00
6738;DHT22;3406;49.902;8.596;2024-01-15T15:02:07;3.30;74.50
6738;DHT22;3406;49.902;8.596;2024-01-15T15:04:33;3.30;74.40
6738;DHT22;3406;49.902;8.596;2024-01-15T15:07:00;3.30;74.30
6738;DHT22;3406;49.902;8.596;2024-01-15T15:09:28;3.30;74.20
6738;DHT22;3406;49.902;8.596;2024-01-15T15:11:55;3.40;74.30
6738;DHT22;3406;49.902;8.596;2024-01-15T15:14:21;3.40;74.20
6738;DHT22;3406;49.902;8.596;2024-01-15T15:16:48;3.30;74.10
6738;DHT22;3406;49.902;8.596;2024-01-15T15:19:14;3.30;74.00
6738;DHT22;3406;49.902;8.596;2024-01-15T15:21:42;3.30;73.90
6738;DHT22;3406;49.902;8.596;2024-01-15T15:24:09;3.30;74.50
6738;DHT22;3406;49.902;8.596;2024-01-15T15:26:38;3.30;73.70
6738;DHT22;3406;49.902;8.596;2024-01-15T15:29:05;3.30;73.60
6738;DHT22;3406;49.902;8.596;2024-01-15T15:31:31;3.30;73.50
6738;DHT22;3406;49.902;8.596;2024-01-15T15:33:58;3.30;73.40
6738;DHT22;3406;49.902;8.596;2024-01-15T15:36:25;3.30;73.30
6738;DHT22;3406;49.902;8.596;2024-01-15T15:38:51;3.30;73.30
6738;DHT22;3406;49.902;8.596;2024-01-15T15:41:18;3.30;73.30
6738;DHT22;3406;49.902;8.596;2024-01-15T15:43:46;3.20;73.10
6738;DHT22;3406;49.902;8.596;2024-01-15T15:46:12;3.10;73.00
6738;DHT22;3406;49.902;8.596;2024-01-15T15:48:39;3.10;72.90
6738;DHT22;3406;49.902;8.596;2024-01-15T15:51:06;3.10;73.00
6738;DHT22;3406;49.902;8.596;2024-01-15T15:53:32;3.00;72.90
6738;DHT22;3406;49.902;8.596;2024-01-15T15:55:59;3.00;73.00
6738;DHT22;3406;49.902;8.596;2024-01-15T15:58:25;2.90;72.90
6738;DHT22;3406;49.902;8.596;2024-01-15T16:00:53;2.90;72.90
6738;DHT22;3406;49.902;8.596;2024-01-15T16:03:20;2.80;72.80
6738;DHT22;3406;49.902;8.596;2024-01-15T16:05:47;2.80;72.80
6738;DHT22;3406;49.902;8.596;2024-01-15T16:08:13;2.70;72.70
6738;DHT22;3406;49.902;8.596;2024-01-15T16:10:40;2.70;72.80
6738;DHT22;3406;49.902;8.596;2024-01-15T16:13:07;2.60;72.80